Terminal Aerodrome Forecast
Issued by NWS Sterling, VA

Current Version | Previous Version | Text Only | Print | Product List | Glossary Off
Versions: 1 2 3 4 5 6 7 8 9 10 11 12 13 14 15 16 17 18 19 20 21 22

000
FTUS41 KLWX 301100
TAFIAD
TAF
KIAD 301130Z 3012/3118 33004KT P6SM SCT200
     FM301700 28005KT P6SM BKN050
     FM302300 20005KT P6SM SCT050
     FM310100 19005KT P6SM BKN050
     FM310300 18004KT P6SM SCT050
     FM311000 VRB03KT P6SM FEW250=

USA.gov is the U.S. government's official web portal to all federal, state and local government web resources and services.